sensor_id;sensor_type;location;lat;lon;timestamp;temperature;humidity
6520;DHT22;3293;51.690;5.982;2023-07-20T00:02:25;16.80;99.90
6520;DHT22;3293;51.690;5.982;2023-07-20T00:07:25;16.80;99.90
6520;DHT22;3293;51.690;5.982;2023-07-20T00:12:25;16.70;99.90
6520;DHT22;3293;51.690;5.982;2023-07-20T00:17:25;16.70;99.90
6520;DHT22;3293;51.690;5.982;2023-07-20T00:22:25;16.70;99.90
6520;DHT22;3293;51.690;5.982;2023-07-20T00:27:25;16.70;99.90
6520;DHT22;3293;51.690;5.982;2023-07-20T00:32:25;16.70;99.90
6520;DHT22;3293;51.690;5.982;2023-07-20T00:37:25;16.70;99.90
6520;DHT22;3293;51.690;5.982;2023-07-20T00:42:25;16.70;99.90
6520;DHT22;3293;51.690;5.982;2023-07-20T00:47:25;16.70;99.90
6520;DHT22;3293;51.690;5.982;2023-07-20T00:52:27;16.60;99.90
6520;DHT22;3293;51.690;5.982;2023-07-20T00:57:28;16.50;99.90
6520;DHT22;3293;51.690;5.982;2023-07-20T01:02:28;16.30;99.90
6520;DHT22;3293;51.690;5.982;2023-07-20T01:07:35;16.30;99.90
6520;DHT22;3293;51.690;5.982;2023-07-20T01:12:51;16.30;99.90
6520;DHT22;3293;51.690;5.982;2023-07-20T01:17:51;16.30;99.90
6520;DHT22;3293;51.690;5.982;2023-07-20T01:28:48;16.40;99.90
6520;DHT22;3293;51.690;5.982;2023-07-20T01:33:54;16.40;99.90
6520;DHT22;3293;51.690;5.982;2023-07-20T01:38:56;16.40;99.90
6520;DHT22;3293;51.690;5.982;2023-07-20T01:43:59;16.40;99.90
6520;DHT22;3293;51.690;5.982;2023-07-20T01:48:59;16.40;99.90
6520;DHT22;3293;51.690;5.982;2023-07-20T01:53:59;16.40;99.90
6520;DHT22;3293;51.690;5.982;2023-07-20T01:58:59;16.40;99.90
6520;DHT22;3293;51.690;5.982;2023-07-20T02:04:00;16.40;99.90
6520;DHT22;3293;51.690;5.982;2023-07-20T02:09:00;16.30;99.90
6520;DHT22;3293;51.690;5.982;2023-07-20T02:14:00;16.10;99.90
6520;DHT22;3293;51.690;5.982;2023-07-20T02:19:00;16.00;99.90
6520;DHT22;3293;51.690;5.982;2023-07-20T02:24:00;15.90;99.90
6520;DHT22;3293;51.690;5.982;2023-07-20T02:29:00;15.90;99.90
6520;DHT22;3293;51.690;5.982;2023-07-20T02:34:00;15.90;99.90
6520;DHT22;3293;51.690;5.982;2023-07-20T02:39:00;15.90;99.90
6520;DHT22;3293;51.690;5.982;2023-07-20T02:44:03;15.90;99.90
6520;DHT22;3293;51.690;5.982;2023-07-20T02:49:03;15.90;99.90
6520;DHT22;3293;51.690;5.982;2023-07-20T02:54:04;15.80;99.90
6520;DHT22;3293;51.690;5.982;2023-07-20T02:59:04;15.80;99.90
6520;DHT22;3293;51.690;5.982;2023-07-20T03:04:04;15.70;99.90
6520;DHT22;3293;51.690;5.982;2023-07-20T03:09:04;15.50;99.90
6520;DHT22;3293;51.690;5.982;2023-07-20T03:14:04;15.40;99.90
6520;DHT22;3293;51.690;5.982;2023-07-20T03:19:04;15.30;99.90
6520;DHT22;3293;51.690;5.982;2023-07-20T03:24:04;15.20;99.90
6520;DHT22;3293;51.690;5.982;2023-07-20T03:29:05;15.20;99.90
6520;DHT22;3293;51.690;5.982;2023-07-20T03:34:06;15.20;99.90
6520;DHT22;3293;51.690;5.982;2023-07-20T03:39:08;15.30;99.90
6520;DHT22;3293;51.690;5.982;2023-07-20T03:44:08;15.20;99.90
6520;DHT22;3293;51.690;5.982;2023-07-20T03:49:08;15.20;99.90
6520;DHT22;3293;51.690;5.982;2023-07-20T03:54:08;15.20;99.90
6520;DHT22;3293;51.690;5.982;2023-07-20T03:59:09;15.10;99.90
6520;DHT22;3293;51.690;5.982;2023-07-20T04:04:09;15.00;99.90
6520;DHT22;3293;51.690;5.982;2023-07-20T04:09:09;15.00;99.90
6520;DHT22;3293;51.690;5.982;2023-07-20T04:14:08;14.90;99.90
6520;DHT22;3293;51.690;5.982;2023-07-20T04:19:08;14.90;99.90
6520;DHT22;3293;51.690;5.982;2023-07-20T04:24:08;14.80;99.90
6520;DHT22;3293;51.690;5.982;2023-07-20T04:29:08;14.80;99.90
6520;DHT22;3293;51.690;5.982;2023-07-20T04:34:09;14.90;99.90
6520;DHT22;3293;51.690;5.982;2023-07-20T04:39:10;15.30;99.90
6520;DHT22;3293;51.690;5.982;2023-07-20T04:44:10;15.30;99.90
6520;DHT22;3293;51.690;5.982;2023-07-20T04:49:10;15.30;99.90
6520;DHT22;3293;51.690;5.982;2023-07-20T04:54:12;15.30;99.90
6520;DHT22;3293;51.690;5.982;2023-07-20T04:59:13;15.40;99.90
6520;DHT22;3293;51.690;5.982;2023-07-20T05:04:13;15.70;99.90
6520;DHT22;3293;51.690;5.982;2023-07-20T05:09:13;16.90;99.90
6520;DHT22;3293;51.690;5.982;2023-07-20T05:14:13;19.00;99.90
6520;DHT22;3293;51.690;5.982;2023-07-20T05:19:13;20.70;99.90
6520;DHT22;3293;51.690;5.982;2023-07-20T05:24:13;22.40;99.90
6520;DHT22;3293;51.690;5.982;2023-07-20T05:29:13;23.50;95.30
6520;DHT22;3293;51.690;5.982;2023-07-20T05:34:13;24.20;87.20
6520;DHT22;3293;51.690;5.982;2023-07-20T05:39:13;24.50;79.60
6520;DHT22;3293;51.690;5.982;2023-07-20T05:44:13;23.30;84.70
6520;DHT22;3293;51.690;5.982;2023-07-20T05:49:13;22.90;89.60
6520;DHT22;3293;51.690;5.982;2023-07-20T05:54:13;22.70;87.10
6520;DHT22;3293;51.690;5.982;2023-07-20T05:59:13;22.10;89.90
6520;DHT22;3293;51.690;5.982;2023-07-20T06:04:13;21.70;91.30
6520;DHT22;3293;51.690;5.982;2023-07-20T06:09:13;22.00;91.40
6520;DHT22;3293;51.690;5.982;2023-07-20T06:14:13;22.80;83.50
6520;DHT22;3293;51.690;5.982;2023-07-20T06:19:13;24.30;77.30
6520;DHT22;3293;51.690;5.982;2023-07-20T06:24:13;25.40;64.80
6520;DHT22;3293;51.690;5.982;2023-07-20T06:29:13;25.90;58.70
6520;DHT22;3293;51.690;5.982;2023-07-20T06:34:13;25.60;58.90
6520;DHT22;3293;51.690;5.982;2023-07-20T06:39:13;26.40;55.00
6520;DHT22;3293;51.690;5.982;2023-07-20T06:44:14;28.20;43.60
6520;DHT22;3293;51.690;5.982;2023-07-20T06:49:27;29.40;37.80
6520;DHT22;3293;51.690;5.982;2023-07-20T06:54:27;30.30;32.40
6520;DHT22;3293;51.690;5.982;2023-07-20T06:59:27;29.80;29.40
6520;DHT22;3293;51.690;5.982;2023-07-20T07:04:27;28.20;39.30
6520;DHT22;3293;51.690;5.982;2023-07-20T07:09:27;29.40;32.50
6520;DHT22;3293;51.690;5.982;2023-07-20T07:14:28;30.50;29.00
6520;DHT22;3293;51.690;5.982;2023-07-20T07:19:29;31.20;25.90
6520;DHT22;3293;51.690;5.982;2023-07-20T07:24:29;31.60;22.20
6520;DHT22;3293;51.690;5.982;2023-07-20T07:29:33;31.50;17.90
6520;DHT22;3293;51.690;5.982;2023-07-20T07:34:33;30.50;21.50
6520;DHT22;3293;51.690;5.982;2023-07-20T07:39:34;30.90;22.60
6520;DHT22;3293;51.690;5.982;2023-07-20T07:44:36;30.60;22.40
6520;DHT22;3293;51.690;5.982;2023-07-20T07:49:36;29.00;25.30
6520;DHT22;3293;51.690;5.982;2023-07-20T07:54:36;29.60;23.40
6520;DHT22;3293;51.690;5.982;2023-07-20T07:59:36;31.10;20.70
6520;DHT22;3293;51.690;5.982;2023-07-20T08:04:37;31.50;21.30
6520;DHT22;3293;51.690;5.982;2023-07-20T08:09:38;32.20;20.70
6520;DHT22;3293;51.690;5.982;2023-07-20T08:14:38;30.80;20.30
6520;DHT22;3293;51.690;5.982;2023-07-20T08:19:39;27.80;26.10
6520;DHT22;3293;51.690;5.982;2023-07-20T08:24:42;27.00;29.70
6520;DHT22;3293;51.690;5.982;2023-07-20T08:29:42;25.40;32.50
6520;DHT22;3293;51.690;5.982;2023-07-20T08:34:43;24.10;40.10
6520;DHT22;3293;51.690;5.982;2023-07-20T08:39:42;26.40;35.30
6520;DHT22;3293;51.690;5.982;2023-07-20T08:44:44;28.40;24.30
6520;DHT22;3293;51.690;5.982;2023-07-20T08:49:50;29.90;22.60
6520;DHT22;3293;51.690;5.982;2023-07-20T08:54:50;31.10;20.00
6520;DHT22;3293;51.690;5.982;2023-07-20T08:59:52;31.60;19.20
6520;DHT22;3293;51.690;5.982;2023-07-20T09:04:53;31.20;20.40
6520;DHT22;3293;51.690;5.982;2023-07-20T09:09:57;29.50;20.20
6520;DHT22;3293;51.690;5.982;2023-07-20T09:14:58;26.80;25.80
6520;DHT22;3293;51.690;5.982;2023-07-20T09:20:04;25.10;32.10
6520;DHT22;3293;51.690;5.982;2023-07-20T09:25:14;23.80;39.20
6520;DHT22;3293;51.690;5.982;2023-07-20T09:30:16;25.60;34.80
6520;DHT22;3293;51.690;5.982;2023-07-20T09:35:21;27.80;30.10
6520;DHT22;3293;51.690;5.982;2023-07-20T09:40:21;29.50;23.70
6520;DHT22;3293;51.690;5.982;2023-07-20T09:45:21;30.30;20.80
6520;DHT22;3293;51.690;5.982;2023-07-20T09:50:23;30.70;15.60
6520;DHT22;3293;51.690;5.982;2023-07-20T09:55:25;30.90;18.70
6520;DHT22;3293;51.690;5.982;2023-07-20T10:00:25;30.60;17.70
6520;DHT22;3293;51.690;5.982;2023-07-20T10:05:28;30.20;17.90
6520;DHT22;3293;51.690;5.982;2023-07-20T10:10:33;29.40;18.60
6520;DHT22;3293;51.690;5.982;2023-07-20T10:15:37;28.10;18.70
6520;DHT22;3293;51.690;5.982;2023-07-20T10:20:40;27.70;21.90
6520;DHT22;3293;51.690;5.982;2023-07-20T10:25:43;26.90;22.40
6520;DHT22;3293;51.690;5.982;2023-07-20T10:30:45;26.20;27.40
6520;DHT22;3293;51.690;5.982;2023-07-20T10:35:57;24.80;28.10
6520;DHT22;3293;51.690;5.982;2023-07-20T10:40:57;23.80;32.10
6520;DHT22;3293;51.690;5.982;2023-07-20T10:45:58;23.30;38.40
6520;DHT22;3293;51.690;5.982;2023-07-20T10:51:40;23.20;44.60
6520;DHT22;3293;51.690;5.982;2023-07-20T10:56:41;23.10;42.40
6520;DHT22;3293;51.690;5.982;2023-07-20T11:01:42;23.60;44.20
6520;DHT22;3293;51.690;5.982;2023-07-20T11:06:44;23.90;41.90
6520;DHT22;3293;51.690;5.982;2023-07-20T11:11:47;23.80;39.50
6520;DHT22;3293;51.690;5.982;2023-07-20T11:16:48;24.30;36.10
6520;DHT22;3293;51.690;5.982;2023-07-20T11:21:57;24.70;37.90
6520;DHT22;3293;51.690;5.982;2023-07-20T11:26:58;25.00;30.00
6520;DHT22;3293;51.690;5.982;2023-07-20T11:32:01;24.90;33.60
6520;DHT22;3293;51.690;5.982;2023-07-20T11:37:02;24.70;35.00
6520;DHT22;3293;51.690;5.982;2023-07-20T11:42:05;24.60;34.40
6520;DHT22;3293;51.690;5.982;2023-07-20T11:47:10;24.80;32.50
6520;DHT22;3293;51.690;5.982;2023-07-20T11:52:12;25.30;28.40
6520;DHT22;3293;51.690;5.982;2023-07-20T11:57:19;25.40;28.10
6520;DHT22;3293;51.690;5.982;2023-07-20T12:02:20;25.20;27.80
6520;DHT22;3293;51.690;5.982;2023-07-20T12:07:20;24.60;30.60
6520;DHT22;3293;51.690;5.982;2023-07-20T12:12:20;24.70;32.50
6520;DHT22;3293;51.690;5.982;2023-07-20T12:17:20;24.50;34.70
6520;DHT22;3293;51.690;5.982;2023-07-20T12:22:20;24.40;32.40
6520;DHT22;3293;51.690;5.982;2023-07-20T12:27:20;24.60;29.80
6520;DHT22;3293;51.690;5.982;2023-07-20T12:32:21;24.50;32.70
6520;DHT22;3293;51.690;5.982;2023-07-20T12:37:21;24.80;33.50
6520;DHT22;3293;51.690;5.982;2023-07-20T12:42:22;24.80;30.10
6520;DHT22;3293;51.690;5.982;2023-07-20T12:47:22;24.70;29.30
6520;DHT22;3293;51.690;5.982;2023-07-20T12:52:22;24.70;31.40
6520;DHT22;3293;51.690;5.982;2023-07-20T12:57:22;24.70;30.10
6520;DHT22;3293;51.690;5.982;2023-07-20T13:02:22;24.60;31.30
6520;DHT22;3293;51.690;5.982;2023-07-20T13:07:36;24.70;34.20
6520;DHT22;3293;51.690;5.982;2023-07-20T13:12:37;24.90;29.00
6520;DHT22;3293;51.690;5.982;2023-07-20T13:17:38;25.00;31.80
6520;DHT22;3293;51.690;5.982;2023-07-20T13:22:39;25.30;30.20
6520;DHT22;3293;51.690;5.982;2023-07-20T13:27:39;25.40;29.90
6520;DHT22;3293;51.690;5.982;2023-07-20T13:32:40;25.20;30.00
6520;DHT22;3293;51.690;5.982;2023-07-20T13:37:40;25.00;30.10
6520;DHT22;3293;51.690;5.982;2023-07-20T13:42:40;24.90;31.20
6520;DHT22;3293;51.690;5.982;2023-07-20T13:47:40;24.90;28.10
6520;DHT22;3293;51.690;5.982;2023-07-20T13:52:41;24.70;33.10
6520;DHT22;3293;51.690;5.982;2023-07-20T13:57:41;24.50;31.90
6520;DHT22;3293;51.690;5.982;2023-07-20T14:02:41;24.40;33.00
6520;DHT22;3293;51.690;5.982;2023-07-20T14:07:41;24.20;31.80
6520;DHT22;3293;51.690;5.982;2023-07-20T14:12:41;24.00;33.00
6520;DHT22;3293;51.690;5.982;2023-07-20T14:17:42;23.70;34.20
6520;DHT22;3293;51.690;5.982;2023-07-20T14:22:42;23.60;35.20
6520;DHT22;3293;51.690;5.982;2023-07-20T14:27:42;23.50;33.60
6520;DHT22;3293;51.690;5.982;2023-07-20T14:32:42;23.60;34.00
6520;DHT22;3293;51.690;5.982;2023-07-20T14:37:43;23.70;33.50
6520;DHT22;3293;51.690;5.982;2023-07-20T14:42:46;24.10;33.90
6520;DHT22;3293;51.690;5.982;2023-07-20T14:47:46;24.50;33.00
6520;DHT22;3293;51.690;5.982;2023-07-20T14:52:49;24.80;30.10
6520;DHT22;3293;51.690;5.982;2023-07-20T14:57:49;24.90;28.70
6520;DHT22;3293;51.690;5.982;2023-07-20T15:02:49;24.70;29.60
6520;DHT22;3293;51.690;5.982;2023-07-20T15:07:50;24.20;29.40
6520;DHT22;3293;51.690;5.982;2023-07-20T15:12:50;23.80;31.90
6520;DHT22;3293;51.690;5.982;2023-07-20T15:17:50;23.50;32.50
6520;DHT22;3293;51.690;5.982;2023-07-20T15:22:50;23.50;29.60
6520;DHT22;3293;51.690;5.982;2023-07-20T15:27:50;23.60;31.30
6520;DHT22;3293;51.690;5.982;2023-07-20T15:32:50;23.60;30.00
6520;DHT22;3293;51.690;5.982;2023-07-20T15:37:50;23.90;27.30
6520;DHT22;3293;51.690;5.982;2023-07-20T15:42:50;24.10;30.10
6520;DHT22;3293;51.690;5.982;2023-07-20T15:47:50;24.00;27.80
6520;DHT22;3293;51.690;5.982;2023-07-20T15:52:50;24.10;28.30
6520;DHT22;3293;51.690;5.982;2023-07-20T15:57:50;24.10;25.60
6520;DHT22;3293;51.690;5.982;2023-07-20T16:02:50;23.90;27.80
6520;DHT22;3293;51.690;5.982;2023-07-20T16:07:51;24.00;26.70
6520;DHT22;3293;51.690;5.982;2023-07-20T16:12:51;24.00;28.10
6520;DHT22;3293;51.690;5.982;2023-07-20T16:17:51;24.00;27.40
6520;DHT22;3293;51.690;5.982;2023-07-20T16:22:51;23.90;28.70
6520;DHT22;3293;51.690;5.982;2023-07-20T16:27:51;24.00;28.30
6520;DHT22;3293;51.690;5.982;2023-07-20T16:32:50;23.80;28.50
6520;DHT22;3293;51.690;5.982;2023-07-20T16:37:50;23.70;28.40
6520;DHT22;3293;51.690;5.982;2023-07-20T16:42:50;23.60;28.40
6520;DHT22;3293;51.690;5.982;2023-07-20T16:47:50;23.50;26.60
6520;DHT22;3293;51.690;5.982;2023-07-20T16:52:51;23.30;28.00
6520;DHT22;3293;51.690;5.982;2023-07-20T16:57:51;23.00;29.20
6520;DHT22;3293;51.690;5.982;2023-07-20T17:02:51;22.70;30.00
6520;DHT22;3293;51.690;5.982;2023-07-20T17:07:51;22.60;31.80
6520;DHT22;3293;51.690;5.982;2023-07-20T17:12:55;22.40;32.20
6520;DHT22;3293;51.690;5.982;2023-07-20T17:17:55;22.20;32.50
6520;DHT22;3293;51.690;5.982;2023-07-20T17:22:56;22.10;34.20
6520;DHT22;3293;51.690;5.982;2023-07-20T17:27:57;22.00;37.00
6520;DHT22;3293;51.690;5.982;2023-07-20T17:32:57;21.80;38.60
6520;DHT22;3293;51.690;5.982;2023-07-20T17:37:58;21.70;39.90
6520;DHT22;3293;51.690;5.982;2023-07-20T17:42:57;21.50;40.10
6520;DHT22;3293;51.690;5.982;2023-07-20T17:47:58;21.30;39.20
6520;DHT22;3293;51.690;5.982;2023-07-20T17:52:58;21.10;38.10
6520;DHT22;3293;51.690;5.982;2023-07-20T17:57:58;20.90;39.40
6520;DHT22;3293;51.690;5.982;2023-07-20T18:02:58;20.90;41.10
6520;DHT22;3293;51.690;5.982;2023-07-20T18:07:58;20.80;40.80
6520;DHT22;3293;51.690;5.982;2023-07-20T18:12:58;20.80;47.10
6520;DHT22;3293;51.690;5.982;2023-07-20T18:17:59;20.50;53.70
6520;DHT22;3293;51.690;5.982;2023-07-20T18:22:59;20.40;56.80
6520;DHT22;3293;51.690;5.982;2023-07-20T18:27:59;20.10;57.20
6520;DHT22;3293;51.690;5.982;2023-07-20T18:33:00;19.90;59.20
6520;DHT22;3293;51.690;5.982;2023-07-20T18:38:07;19.80;62.40
6520;DHT22;3293;51.690;5.982;2023-07-20T18:43:08;19.70;68.30
6520;DHT22;3293;51.690;5.982;2023-07-20T18:48:08;19.50;65.80
6520;DHT22;3293;51.690;5.982;2023-07-20T18:53:09;19.50;64.10
6520;DHT22;3293;51.690;5.982;2023-07-20T18:58:09;19.30;65.50
6520;DHT22;3293;51.690;5.982;2023-07-20T19:03:09;19.20;66.70
6520;DHT22;3293;51.690;5.982;2023-07-20T19:08:09;19.10;67.80
6520;DHT22;3293;51.690;5.982;2023-07-20T19:13:10;19.00;70.40
6520;DHT22;3293;51.690;5.982;2023-07-20T19:18:11;19.00;70.70
6520;DHT22;3293;51.690;5.982;2023-07-20T19:23:11;19.00;71.80
6520;DHT22;3293;51.690;5.982;2023-07-20T19:28:11;19.00;81.00
6520;DHT22;3293;51.690;5.982;2023-07-20T19:33:12;18.90;85.40
6520;DHT22;3293;51.690;5.982;2023-07-20T19:38:12;18.80;90.80
6520;DHT22;3293;51.690;5.982;2023-07-20T19:43:12;18.60;94.00
6520;DHT22;3293;51.690;5.982;2023-07-20T19:48:14;18.30;95.60
6520;DHT22;3293;51.690;5.982;2023-07-20T19:53:18;18.10;96.70
6520;DHT22;3293;51.690;5.982;2023-07-20T19:58:18;17.90;99.40
6520;DHT22;3293;51.690;5.982;2023-07-20T20:03:18;17.80;99.90
6520;DHT22;3293;51.690;5.982;2023-07-20T20:08:18;17.60;99.90
6520;DHT22;3293;51.690;5.982;2023-07-20T20:13:18;17.50;99.90
6520;DHT22;3293;51.690;5.982;2023-07-20T20:18:18;17.40;99.90
6520;DHT22;3293;51.690;5.982;2023-07-20T20:23:20;17.30;99.90
6520;DHT22;3293;51.690;5.982;2023-07-20T20:28:21;17.30;99.90
6520;DHT22;3293;51.690;5.982;2023-07-20T20:33:22;17.30;99.90
6520;DHT22;3293;51.690;5.982;2023-07-20T20:38:23;17.20;99.90
6520;DHT22;3293;51.690;5.982;2023-07-20T20:43:22;17.20;99.90
6520;DHT22;3293;51.690;5.982;2023-07-20T20:48:23;17.10;99.90
6520;DHT22;3293;51.690;5.982;2023-07-20T20:53:24;17.10;99.90
6520;DHT22;3293;51.690;5.982;2023-07-20T20:58:24;17.00;99.90
6520;DHT22;3293;51.690;5.982;2023-07-20T21:03:24;17.00;99.90
6520;DHT22;3293;51.690;5.982;2023-07-20T21:08:24;16.90;99.90
6520;DHT22;3293;51.690;5.982;2023-07-20T21:13:26;16.70;99.90
6520;DHT22;3293;51.690;5.982;2023-07-20T21:18:28;16.50;99.90
6520;DHT22;3293;51.690;5.982;2023-07-20T21:23:28;16.40;99.90
6520;DHT22;3293;51.690;5.982;2023-07-20T21:28:28;16.20;99.90
6520;DHT22;3293;51.690;5.982;2023-07-20T21:33:29;16.10;99.90
6520;DHT22;3293;51.690;5.982;2023-07-20T21:38:29;16.10;99.90
6520;DHT22;3293;51.690;5.982;2023-07-20T21:43:31;16.00;99.90
6520;DHT22;3293;51.690;5.982;2023-07-20T21:48:32;15.80;99.90
6520;DHT22;3293;51.690;5.982;2023-07-20T21:53:34;15.70;99.90
6520;DHT22;3293;51.690;5.982;2023-07-20T21:58:35;15.60;99.90
6520;DHT22;3293;51.690;5.982;2023-07-20T22:03:36;15.60;99.90
6520;DHT22;3293;51.690;5.982;2023-07-20T22:08:36;15.50;99.90
6520;DHT22;3293;51.690;5.982;2023-07-20T22:13:36;15.40;99.90
6520;DHT22;3293;51.690;5.982;2023-07-20T22:18:36;15.30;99.90
6520;DHT22;3293;51.690;5.982;2023-07-20T22:23:36;15.20;99.90
6520;DHT22;3293;51.690;5.982;2023-07-20T22:28:36;15.20;99.90
6520;DHT22;3293;51.690;5.982;2023-07-20T22:33:36;15.20;99.90
6520;DHT22;3293;51.690;5.982;2023-07-20T22:38:36;15.20;99.90
6520;DHT22;3293;51.690;5.982;2023-07-20T22:43:36;15.20;99.90
6520;DHT22;3293;51.690;5.982;2023-07-20T22:48:37;15.10;99.90
6520;DHT22;3293;51.690;5.982;2023-07-20T22:53:38;15.10;99.90
6520;DHT22;3293;51.690;5.982;2023-07-20T22:58:39;15.10;99.90
6520;DHT22;3293;51.690;5.982;2023-07-20T23:03:38;15.10;99.90
6520;DHT22;3293;51.690;5.982;2023-07-20T23:08:38;15.10;99.90
6520;DHT22;3293;51.690;5.982;2023-07-20T23:13:38;15.10;99.90
6520;DHT22;3293;51.690;5.982;2023-07-20T23:18:40;15.00;99.90
6520;DHT22;3293;51.690;5.982;2023-07-20T23:23:40;14.90;99.90
6520;DHT22;3293;51.690;5.982;2023-07-20T23:28:40;14.80;99.90
6520;DHT22;3293;51.690;5.982;2023-07-20T23:33:40;14.70;99.90
6520;DHT22;3293;51.690;5.982;2023-07-20T23:38:40;14.60;99.90
6520;DHT22;3293;51.690;5.982;2023-07-20T23:43:41;14.40;99.90
6520;DHT22;3293;51.690;5.982;2023-07-20T23:48:41;14.30;99.90
6520;DHT22;3293;51.690;5.982;2023-07-20T23:53:42;14.20;99.90
6520;DHT22;3293;51.690;5.982;2023-07-20T23:58:42;14.20;99.90
